Time;durP1;ratioP1;P1;durP2;ratioP2;P2;SDS_P1;SDS_P2;PMS_P1;PMS_P2;Temp;Humidity;BMP_temperature;BMP_pressure;BME280_temperature;BME280_humidity;BME280_pressure;Samples;Min_cycle;Max_cycle;Signal;HPM_P1;HPM_P2
2024/01/20 00:01:25;;;;;;;;;;;;;;;;;;5086989;28;19930;-69
2024/01/20 00:03:51;;;;;;;;;;;;;;;;;;5081280;28;19931;-71
2024/01/20 00:06:18;;;;;;;;;;;;;;;;;;5083978;28;19931;-71
2024/01/20 00:08:44;;;;;;;;;;;;;;;;;;5086460;28;20394;-69
2024/01/20 00:11:11;;;;;;;;;;;;;;;;;;5070146;28;19929;-69
2024/01/20 00:13:37;;;;;;;;;;;;;;;;;;5080970;28;19924;-69
2024/01/20 00:16:03;;;;;;;;;;;;;;;;;;5076200;28;19929;-69
2024/01/20 00:18:30;;;;;;;;;;;;;;;;;;5074799;28;19924;-68
2024/01/20 00:20:57;;;;;;;;;;;;;;;;;;5076560;28;19925;-69
2024/01/20 00:23:23;;;;;;;;;;;;;;;;;;5069849;28;20356;-70
2024/01/20 00:25:49;;;;;;;;;;;;;;;;;;5084738;28;19925;-70
2024/01/20 00:28:18;;;;;;;;;;;;;;;;;;5071973;28;20023;-70
2024/01/20 00:30:44;;;;;;;;;;;;;;;;;;5079142;28;19928;-68
2024/01/20 00:33:10;;;;;;;;;;;;;;;;;;5075163;28;19925;-69
2024/01/20 00:35:42;;;;;;;;;;;;;;;;;;5081917;28;20391;-68
2024/01/20 00:38:08;;;;;;;;;;;;;;;;;;5072093;28;19951;-72
2024/01/20 00:40:35;;;;;;;;;;;;;;;;;;5078445;28;19939;-70
2024/01/20 00:43:01;;;;;;;;;;;;;;;;;;5080628;28;19925;-68
2024/01/20 00:45:28;;;;;;;;;;;;;;;;;;5078068;28;19947;-70
2024/01/20 00:47:54;;;;;;;;;;;;;;;;;;5079447;28;19928;-68
2024/01/20 00:50:21;;;;;;;;;;;;;;;;;;5077442;28;19924;-70
2024/01/20 00:52:47;;;;;;;;;;;;;;;;;;5077165;28;20344;-69
2024/01/20 00:55:14;;;;;;;;;;;;;;;;;;5083879;28;19993;-68
2024/01/20 00:57:40;;;;;;;;;;;;;;;;;;5083521;28;20330;-69
2024/01/20 01:00:09;;;;;;;;;;;;;;;;;;5076998;28;20296;-71
2024/01/20 01:02:35;;;;;;;;;;;;;;;;;;5077770;28;19977;-70
2024/01/20 01:05:02;;;;;;;;;;;;;;;;;;5077004;28;19993;-69
2024/01/20 01:07:28;;;;;;;;;;;;;;;;;;5063787;28;19932;-69
2024/01/20 01:09:55;;;;;;;;;;;;;;;;;;5075407;28;19928;-70
2024/01/20 01:12:21;;;;;;;;;;;;;;;;;;5086584;28;20047;-70
2024/01/20 01:14:47;;;;;;;;;;;;;;;;;;5080407;28;19929;-69
2024/01/20 01:17:17;;;;;;;;;;;;;;;;;;5075557;28;19946;-70
2024/01/20 01:19:43;;;;;;;;;;;;;;;;;;5076699;28;19931;-69
2024/01/20 01:22:09;;;;;;;;;;;;;;;;;;5076219;28;19975;-68
2024/01/20 01:24:37;;;;;;;;;;;;;;;;;;5078987;28;19929;-69
2024/01/20 01:27:04;;;;;;;;;;;;;;;;;;5078009;28;20019;-69
2024/01/20 01:29:30;;;;;;;;;;;;;;;;;;5080201;28;19929;-69
2024/01/20 01:31:56;;;;;;;;;;;;;;;;;;5078255;28;20383;-72
2024/01/20 01:34:23;;;;;;;;;;;;;;;;;;5080658;28;19924;-70
2024/01/20 01:36:49;;;;;;;;;;;;;;;;;;5083840;28;20460;-69
2024/01/20 01:39:17;;;;;;;;;;;;;;;;;;5075482;28;19928;-71
2024/01/20 01:41:43;;;;;;;;;;;;;;;;;;5078132;28;19998;-69
2024/01/20 01:44:10;;;;;;;;;;;;;;;;;;5079591;28;19924;-69
2024/01/20 01:46:36;;;;;;;;;;;;;;;;;;5083513;28;19940;-69
2024/01/20 01:49:03;;;;;;;;;;;;;;;;;;5084337;28;19964;-69
2024/01/20 01:51:29;;;;;;;;;;;;;;;;;;5082547;28;20027;-70
2024/01/20 01:53:55;;;;;;;;;;;;;;;;;;5079928;28;20002;-70
2024/01/20 01:56:22;;;;;;;;;;;;;;;;;;5084136;28;19932;-71
2024/01/20 01:58:48;;;;;;;;;;;;;;;;;;5082189;28;20023;-68
2024/01/20 02:01:14;;;;;;;;;;;;;;;;;;5076326;28;19972;-69
2024/01/20 02:03:41;;;;;;;;;;;;;;;;;;5077823;28;20369;-69
2024/01/20 02:06:08;;;;;;;;;;;;;;;;;;5077034;28;20377;-69
2024/01/20 02:08:34;;;;;;;;;;;;;;;;;;5075256;28;19940;-71
2024/01/20 02:11:01;;;;;;;;;;;;;;;;;;5073037;28;20019;-69
2024/01/20 02:13:27;;;;;;;;;;;;;;;;;;5077296;28;20376;-69
2024/01/20 02:15:54;;;;;;;;;;;;;;;;;;5073852;28;19986;-71
2024/01/20 02:18:20;;;;;;;;;;;;;;;;;;5075703;28;19928;-69
2024/01/20 02:20:46;;;;;;;;;;;;;;;;;;5084037;28;19924;-70
2024/01/20 02:23:13;;;;;;;;;;;;;;;;;;5075828;28;20380;-69
2024/01/20 02:25:39;;;;;;;;;;;;;;;;;;5085376;28;19924;-68
2024/01/20 02:28:06;;;;;;;;;;;;;;;;;;5071779;28;19935;-70
2024/01/20 02:30:32;;;;;;;;;;;;;;;;;;5079221;28;19935;-69
2024/01/20 02:32:58;;;;;;;;;;;;;;;;;;5071385;28;19925;-69
2024/01/20 02:35:25;;;;;;;;;;;;;;;;;;5075442;28;20385;-72
2024/01/20 02:37:51;;;;;;;;;;;;;;;;;;5072027;28;19971;-69
2024/01/20 02:40:17;;;;;;;;;;;;;;;;;;5080405;28;19924;-71
2024/01/20 02:42:44;;;;;;;;;;;;;;;;;;5069181;28;19924;-70
2024/01/20 02:45:10;;;;;;;;;;;;;;;;;;5071292;28;19972;-70
2024/01/20 02:47:39;;;;;;;;;;;;;;;;;;5072112;28;19978;-69
2024/01/20 02:50:05;;;;;;;;;;;;;;;;;;5074178;28;20339;-69
2024/01/20 02:52:32;;;;;;;;;;;;;;;;;;5077060;28;19970;-69
2024/01/20 02:54:58;;;;;;;;;;;;;;;;;;5077496;28;19934;-69
2024/01/20 02:57:25;;;;;;;;;;;;;;;;;;5082395;28;20271;-69
2024/01/20 02:59:51;;;;;;;;;;;;;;;;;;5068274;28;19925;-69
2024/01/20 03:02:18;;;;;;;;;;;;;;;;;;5073364;28;20292;-69
2024/01/20 03:04:44;;;;;;;;;;;;;;;;;;5078134;28;19928;-69
2024/01/20 03:07:11;;;;;;;;;;;;;;;;;;5078165;28;19931;-70
2024/01/20 03:09:37;;;;;;;;;;;;;;;;;;5075793;28;19931;-68
2024/01/20 03:12:03;;;;;;;;;;;;;;;;;;5080173;28;20323;-69
2024/01/20 03:14:30;;;;;;;;;;;;;;;;;;5076677;28;19958;-70
2024/01/20 03:16:56;;;;;;;;;;;;;;;;;;5079463;28;20015;-72
2024/01/20 03:19:23;;;;;;;;;;;;;;;;;;5075971;28;19925;-70
2024/01/20 03:21:49;;;;;;;;;;;;;;;;;;5080460;28;19974;-70
2024/01/20 03:24:15;;;;;;;;;;;;;;;;;;5080883;28;19940;-70
2024/01/20 03:26:42;;;;;;;;;;;;;;;;;;5075680;28;19924;-70
2024/01/20 03:29:08;;;;;;;;;;;;;;;;;;5081032;28;20313;-69
2024/01/20 03:31:34;;;;;;;;;;;;;;;;;;5081183;28;19939;-69
2024/01/20 03:34:01;;;;;;;;;;;;;;;;;;5058404;28;19934;-68
2024/01/20 03:36:27;;;;;;;;;;;;;;;;;;5076545;28;19928;-69
2024/01/20 03:38:54;;;;;;;;;;;;;;;;;;5074313;28;20443;-69
2024/01/20 03:41:20;;;;;;;;;;;;;;;;;;5066663;28;20301;-69
2024/01/20 03:43:46;;;;;;;;;;;;;;;;;;5086263;28;20270;-69
2024/01/20 03:46:13;;;;;;;;;;;;;;;;;;5071405;28;19947;-69
2024/01/20 03:48:40;;;;;;;;;;;;;;;;;;5070318;28;19924;-70
2024/01/20 03:51:06;;;;;;;;;;;;;;;;;;5066167;28;19928;-69
2024/01/20 03:53:32;;;;;;;;;;;;;;;;;;5076324;28;19925;-69
2024/01/20 03:55:59;;;;;;;;;;;;;;;;;;5058977;28;20015;-70
2024/01/20 03:58:25;;;;;;;;;;;;;;;;;;5071144;28;19924;-68
2024/01/20 04:00:52;;;;;;;;;;;;;;;;;;5068372;28;19925;-68
2024/01/20 04:03:18;;;;;;;;;;;;;;;;;;5075424;28;20015;-69
2024/01/20 04:05:44;;;;;;;;;;;;;;;;;;5064596;28;19924;-68
2024/01/20 04:08:11;;;;;;;;;;;;;;;;;;5075141;28;20368;-69
2024/01/20 04:10:37;;;;;;;;;;;;;;;;;;5068877;28;20299;-69
2024/01/20 04:13:03;;;;;;;;;;;;;;;;;;5066414;28;20384;-70
2024/01/20 04:15:30;;;;;;;;;;;;;;;;;;5068375;28;19931;-70
2024/01/20 04:17:56;;;;;;;;;;;;;;;;;;5069019;28;19989;-69
2024/01/20 04:20:23;;;;;;;;;;;;;;;;;;5075170;28;20393;-70
2024/01/20 04:22:49;;;;;;;;;;;;;;;;;;5057446;28;20415;-70
2024/01/20 04:25:16;;;;;;;;;;;;;;;;;;5076577;28;19963;-70
2024/01/20 04:27:42;;;;;;;;;;;;;;;;;;5063308;28;20023;-70
2024/01/20 04:30:08;;;;;;;;;;;;;;;;;;5074956;28;20360;-70
2024/01/20 04:32:36;;;;;;;;;;;;;;;;;;5073838;28;19924;-69
2024/01/20 04:35:02;;;;;;;;;;;;;;;;;;5074930;28;19971;-69
2024/01/20 04:37:29;;;;;;;;;;;;;;;;;;5065014;28;19940;-69
2024/01/20 04:39:56;;;;;;;;;;;;;;;;;;5075491;28;19929;-68
2024/01/20 04:42:22;;;;;;;;;;;;;;;;;;5079706;28;19924;-69
2024/01/20 04:44:49;;;;;;;;;;;;;;;;;;5075114;28;19924;-70
2024/01/20 04:47:15;;;;;;;;;;;;;;;;;;5076930;28;19975;-70
2024/01/20 04:49:41;;;;;;;;;;;;;;;;;;5078401;28;19960;-71
2024/01/20 04:52:08;;;;;;;;;;;;;;;;;;5069758;28;19938;-70
2024/01/20 04:54:34;;;;;;;;;;;;;;;;;;5078609;28;19924;-69
2024/01/20 04:57:01;;;;;;;;;;;;;;;;;;5081065;28;19924;-69
2024/01/20 04:59:27;;;;;;;;;;;;;;;;;;5076264;28;19932;-70
2024/01/20 05:01:53;;;;;;;;;;;;;;;;;;5073231;28;19970;-70
2024/01/20 05:04:20;;;;;;;;;;;;;;;;;;5067444;28;19925;-70
2024/01/20 05:06:46;;;;;;;;;;;;;;;;;;5083878;28;19924;-70
2024/01/20 05:09:13;;;;;;;;;;;;;;;;;;5077037;28;19983;-69
2024/01/20 05:11:39;;;;;;;;;;;;;;;;;;5078830;28;19928;-70
2024/01/20 05:14:06;;;;;;;;;;;;;;;;;;5074288;28;19929;-69
2024/01/20 05:16:32;;;;;;;;;;;;;;;;;;5072861;28;20481;-69
2024/01/20 05:18:59;;;;;;;;;;;;;;;;;;5080195;28;20100;-68
2024/01/20 05:21:25;;;;;;;;;;;;;;;;;;5077651;28;19963;-70
2024/01/20 05:23:52;;;;;;;;;;;;;;;;;;5083215;28;20015;-69
2024/01/20 05:26:18;;;;;;;;;;;;;;;;;;5081199;28;19932;-70
2024/01/20 05:28:45;;;;;;;;;;;;;;;;;;5065988;28;19932;-69
2024/01/20 05:31:11;;;;;;;;;;;;;;;;;;5080847;28;20023;-70
2024/01/20 05:33:37;;;;;;;;;;;;;;;;;;5074675;28;19932;-70
2024/01/20 05:36:04;;;;;;;;;;;;;;;;;;5084370;28;19932;-69
2024/01/20 05:38:30;;;;;;;;;;;;;;;;;;5077089;28;20006;-70
2024/01/20 05:40:57;;;;;;;;;;;;;;;;;;5075292;28;19930;-70
2024/01/20 05:43:23;;;;;;;;;;;;;;;;;;5080875;28;20288;-70
2024/01/20 05:45:49;;;;;;;;;;;;;;;;;;5071985;28;19967;-70
2024/01/20 05:48:16;;;;;;;;;;;;;;;;;;5073895;28;20026;-69
2024/01/20 05:50:43;;;;;;;;;;;;;;;;;;5063630;28;19948;-70
2024/01/20 05:53:09;;;;;;;;;;;;;;;;;;5075026;28;20385;-70
2024/01/20 05:55:35;;;;;;;;;;;;;;;;;;5072427;28;19933;-70
2024/01/20 05:58:02;;;;;;;;;;;;;;;;;;5075761;28;19959;-68
2024/01/20 06:00:28;;;;;;;;;;;;;;;;;;5083128;28;19929;-70
2024/01/20 06:02:55;;;;;;;;;;;;;;;;;;5078933;28;19928;-70
2024/01/20 06:05:21;;;;;;;;;;;;;;;;;;5072372;28;19928;-69
2024/01/20 06:07:48;;;;;;;;;;;;;;;;;;5079502;28;19925;-71
2024/01/20 06:10:14;;;;;;;;;;;;;;;;;;5079228;28;19924;-69
2024/01/20 06:12:41;;;;;;;;;;;;;;;;;;5068052;28;20298;-68
2024/01/20 06:15:07;;;;;;;;;;;;;;;;;;5073755;28;20305;-71
2024/01/20 06:17:33;;;;;;;;;;;;;;;;;;5070378;28;19940;-69
2024/01/20 06:20:00;;;;;;;;;;;;;;;;;;5075354;28;20420;-69
2024/01/20 06:22:26;;;;;;;;;;;;;;;;;;5064274;28;20022;-69
2024/01/20 06:24:53;;;;;;;;;;;;;;;;;;5070257;28;20413;-71
2024/01/20 06:27:19;;;;;;;;;;;;;;;;;;5070966;28;20023;-70
2024/01/20 06:29:46;;;;;;;;;;;;;;;;;;5074860;28;20362;-69
2024/01/20 06:32:12;;;;;;;;;;;;;;;;;;5076828;28;19924;-69
2024/01/20 06:34:39;;;;;;;;;;;;;;;;;;5073873;28;19947;-69
2024/01/20 06:37:05;;;;;;;;;;;;;;;;;;5077452;28;20014;-70
2024/01/20 06:39:32;;;;;;;;;;;;;;;;;;5074192;28;19949;-71
2024/01/20 06:41:58;;;;;;;;;;;;;;;;;;5072621;28;20368;-69
2024/01/20 06:44:25;;;;;;;;;;;;;;;;;;5074214;28;20369;-70
2024/01/20 06:46:51;;;;;;;;;;;;;;;;;;5073556;28;19924;-69
2024/01/20 06:49:17;;;;;;;;;;;;;;;;;;5074152;28;19924;-70
2024/01/20 06:51:44;;;;;;;;;;;;;;;;;;5075279;28;19924;-71
2024/01/20 06:54:11;;;;;;;;;;;;;;;;;;5073995;28;20011;-69
2024/01/20 06:56:37;;;;;;;;;;;;;;;;;;5073013;28;20412;-69
2024/01/20 06:59:04;;;;;;;;;;;;;;;;;;5075468;28;19978;-69
2024/01/20 07:01:31;;;;;;;;;;;;;;;;;;5067025;28;19924;-70
2024/01/20 07:03:57;;;;;;;;;;;;;;;;;;5074303;28;19997;-69
2024/01/20 07:06:24;;;;;;;;;;;;;;;;;;5071512;28;19924;-70
2024/01/20 07:08:50;;;;;;;;;;;;;;;;;;5073894;28;20400;-70
2024/01/20 07:11:17;;;;;;;;;;;;;;;;;;5066598;28;19971;-70
2024/01/20 07:13:45;;;;;;;;;;;;;;;;;;5069672;28;19929;-69
2024/01/20 07:16:12;;;;;;;;;;;;;;;;;;5077341;28;19932;-69
2024/01/20 07:18:40;;;;;;;;;;;;;;;;;;5075517;28;20429;-70
2024/01/20 07:21:07;;;;;;;;;;;;;;;;;;5069638;28;19933;-69
2024/01/20 07:23:33;;;;;;;;;;;;;;;;;;5061410;28;19928;-69
2024/01/20 07:26:00;;;;;;;;;;;;;;;;;;5077308;28;20017;-69
2024/01/20 07:28:26;;;;;;;;;;;;;;;;;;5065014;28;19925;-68
2024/01/20 07:30:52;;;;;;;;;;;;;;;;;;5078058;28;19994;-70
2024/01/20 07:33:19;;;;;;;;;;;;;;;;;;5069373;28;20344;-71
2024/01/20 07:35:45;;;;;;;;;;;;;;;;;;5071217;28;19989;-71
2024/01/20 07:38:12;;;;;;;;;;;;;;;;;;5083146;28;20284;-69
2024/01/20 07:40:38;;;;;;;;;;;;;;;;;;5070596;28;19930;-71
2024/01/20 07:43:04;;;;;;;;;;;;;;;;;;5076077;28;19928;-69
2024/01/20 07:45:31;;;;;;;;;;;;;;;;;;5075191;28;19928;-69
2024/01/20 07:47:57;;;;;;;;;;;;;;;;;;5079406;28;19932;-70
2024/01/20 07:50:24;;;;;;;;;;;;;;;;;;5071604;28;19925;-69
2024/01/20 07:52:50;;;;;;;;;;;;;;;;;;5075775;28;19924;-69
2024/01/20 07:55:16;;;;;;;;;;;;;;;;;;5067882;28;19929;-70
2024/01/20 07:57:43;;;;;;;;;;;;;;;;;;5067228;28;19948;-69
2024/01/20 08:00:10;;;;;;;;;;;;;;;;;;5067730;28;19932;-69
2024/01/20 08:02:37;;;;;;;;;;;;;;;;;;5061177;28;19929;-69
2024/01/20 08:05:03;;;;;;;;;;;;;;;;;;5072750;28;19928;-69
2024/01/20 08:07:29;;;;;;;;;;;;;;;;;;5073762;28;19924;-70
2024/01/20 08:09:56;;;;;;;;;;;;;;;;;;5069223;28;19928;-70
2024/01/20 08:12:22;;;;;;;;;;;;;;;;;;5076228;28;19924;-69
2024/01/20 08:14:48;;;;;;;;;;;;;;;;;;5084112;28;19972;-70
2024/01/20 08:17:15;;;;;;;;;;;;;;;;;;5069173;28;19925;-69
2024/01/20 08:19:41;;;;;;;;;;;;;;;;;;5080993;28;19924;-69
2024/01/20 08:22:08;;;;;;;;;;;;;;;;;;5078773;28;19932;-69
2024/01/20 08:24:34;;;;;;;;;;;;;;;;;;5081947;28;19935;-68
2024/01/20 08:27:01;;;;;;;;;;;;;;;;;;5078514;28;19928;-69
2024/01/20 08:29:27;;;;;;;;;;;;;;;;;;5080871;28;20373;-69
2024/01/20 08:31:54;;;;;;;;;;;;;;;;;;5076258;28;20398;-69
2024/01/20 08:34:21;;;;;;;;;;;;;;;;;;5076431;28;19924;-70
2024/01/20 08:36:47;;;;;;;;;;;;;;;;;;5082599;28;20022;-70
2024/01/20 08:39:13;;;;;;;;;;;;;;;;;;5079424;28;19924;-71
2024/01/20 08:41:40;;;;;;;;;;;;;;;;;;5083782;28;19967;-70
2024/01/20 08:44:07;;;;;;;;;;;;;;;;;;5070267;28;19928;-69
2024/01/20 08:46:33;;;;;;;;;;;;;;;;;;5070939;28;19935;-70
2024/01/20 08:49:00;;;;;;;;;;;;;;;;;;5069525;28;19962;-73
2024/01/20 08:51:26;;;;;;;;;;;;;;;;;;5089247;28;19928;-69
2024/01/20 08:53:52;;;;;;;;;;;;;;;;;;5075889;28;20360;-71
2024/01/20 08:56:19;;;;;;;;;;;;;;;;;;5075866;28;19924;-70
2024/01/20 08:58:46;;;;;;;;;;;;;;;;;;5075574;28;19924;-70
2024/01/20 09:01:12;;;;;;;;;;;;;;;;;;5074776;28;19924;-71
2024/01/20 09:03:41;;;;;;;;;;;;;;;;;;5072782;28;19931;-70
2024/01/20 09:06:07;;;;;;;;;;;;;;;;;;5069565;28;20308;-69
2024/01/20 09:08:34;;;;;;;;;;;;;;;;;;5080417;28;19924;-71
2024/01/20 09:11:00;;;;;;;;;;;;;;;;;;5081212;28;19928;-69
2024/01/20 09:13:26;;;;;;;;;;;;;;;;;;5076201;28;19950;-70
2024/01/20 09:15:53;;;;;;;;;;;;;;;;;;5071713;28;19932;-69
2024/01/20 09:18:19;;;;;;;;;;;;;;;;;;5067485;28;19932;-69
2024/01/20 09:20:47;;;;;;;;;;;;;;;;;;5082807;28;19932;-70
2024/01/20 09:23:14;;;;;;;;;;;;;;;;;;5073426;28;19989;-70
2024/01/20 09:25:41;;;;;;;;;;;;;;;;;;5086516;28;19924;-70
2024/01/20 09:28:07;;;;;;;;;;;;;;;;;;5076270;28;20337;-68
2024/01/20 09:30:35;;;;;;;;;;;;;;;;;;5069672;28;19929;-71
2024/01/20 09:33:02;;;;;;;;;;;;;;;;;;5081466;28;19932;-69
2024/01/20 09:35:28;;;;;;;;;;;;;;;;;;5072167;28;20030;-70
2024/01/20 09:37:54;;;;;;;;;;;;;;;;;;5079433;28;19930;-72
2024/01/20 09:40:21;;;;;;;;;;;;;;;;;;5073957;28;20427;-69
2024/01/20 09:42:47;;;;;;;;;;;;;;;;;;5081265;28;19933;-71
2024/01/20 09:45:14;;;;;;;;;;;;;;;;;;5070593;28;19924;-71
2024/01/20 09:47:40;;;;;;;;;;;;;;;;;;5077669;28;19928;-70
2024/01/20 09:50:07;;;;;;;;;;;;;;;;;;5077856;28;19928;-70
2024/01/20 09:52:33;;;;;;;;;;;;;;;;;;5078612;28;20002;-70
2024/01/20 09:55:02;;;;;;;;;;;;;;;;;;5070822;28;19928;-70
2024/01/20 09:57:28;;;;;;;;;;;;;;;;;;5070778;28;19959;-71
2024/01/20 09:59:55;;;;;;;;;;;;;;;;;;5076843;28;20018;-70
2024/01/20 10:02:22;;;;;;;;;;;;;;;;;;5077868;28;19928;-69
2024/01/20 10:04:48;;;;;;;;;;;;;;;;;;5072808;28;19924;-69
2024/01/20 10:07:15;;;;;;;;;;;;;;;;;;5069595;28;20076;-70
2024/01/20 10:09:41;;;;;;;;;;;;;;;;;;5074838;28;19930;-70
2024/01/20 10:12:08;;;;;;;;;;;;;;;;;;5075872;28;20317;-70
2024/01/20 10:14:34;;;;;;;;;;;;;;;;;;5077142;28;19967;-70
2024/01/20 10:17:00;;;;;;;;;;;;;;;;;;5061983;28;19925;-68
2024/01/20 10:19:27;;;;;;;;;;;;;;;;;;5076527;28;19959;-69
2024/01/20 10:21:53;;;;;;;;;;;;;;;;;;5077418;28;19978;-69
2024/01/20 10:24:23;;;;;;;;;;;;;;;;;;5078305;28;19924;-71
2024/01/20 10:26:52;;;;;;;;;;;;;;;;;;5069204;28;19928;-70
2024/01/20 10:29:18;;;;;;;;;;;;;;;;;;5074990;28;19932;-70
2024/01/20 10:31:45;;;;;;;;;;;;;;;;;;5083189;28;19928;-71
2024/01/20 10:34:11;;;;;;;;;;;;;;;;;;5068067;28;20285;-69
2024/01/20 10:36:37;;;;;;;;;;;;;;;;;;5073759;28;20023;-70
2024/01/20 10:39:04;;;;;;;;;;;;;;;;;;5072703;28;20283;-70
2024/01/20 10:41:31;;;;;;;;;;;;;;;;;;5072071;28;19929;-71
2024/01/20 10:43:57;;;;;;;;;;;;;;;;;;5081908;28;19985;-71
2024/01/20 10:46:23;;;;;;;;;;;;;;;;;;5069603;28;19930;-71
2024/01/20 10:48:50;;;;;;;;;;;;;;;;;;5071472;28;19928;-69
2024/01/20 10:51:16;;;;;;;;;;;;;;;;;;5074381;28;20005;-70
2024/01/20 10:53:43;;;;;;;;;;;;;;;;;;5079232;28;20065;-70
2024/01/20 10:56:09;;;;;;;;;;;;;;;;;;5066860;28;19978;-71
2024/01/20 10:58:36;;;;;;;;;;;;;;;;;;5079682;28;20027;-70
2024/01/20 11:01:02;;;;;;;;;;;;;;;;;;5068790;28;20020;-70
2024/01/20 11:03:29;;;;;;;;;;;;;;;;;;5080805;28;19940;-69
2024/01/20 11:05:55;;;;;;;;;;;;;;;;;;5072809;28;19946;-70
2024/01/20 11:08:21;;;;;;;;;;;;;;;;;;5061008;28;19925;-70
2024/01/20 11:10:48;;;;;;;;;;;;;;;;;;5083761;28;19978;-69
2024/01/20 11:13:14;;;;;;;;;;;;;;;;;;5064490;28;19935;-71
2024/01/20 11:15:41;;;;;;;;;;;;;;;;;;5062005;28;20288;-69
2024/01/20 11:18:07;;;;;;;;;;;;;;;;;;5070176;28;19928;-69
2024/01/20 11:20:34;;;;;;;;;;;;;;;;;;5081504;28;19935;-70
2024/01/20 11:23:00;;;;;;;;;;;;;;;;;;5073514;28;19955;-71
2024/01/20 11:25:26;;;;;;;;;;;;;;;;;;5075548;28;19938;-72
2024/01/20 11:27:58;;;;;;;;;;;;;;;;;;5070392;28;19932;-73
2024/01/20 11:30:25;;;;;;;;;;;;;;;;;;5067018;28;20297;-72
2024/01/20 11:32:51;;;;;;;;;;;;;;;;;;5072437;28;19935;-72
2024/01/20 11:35:18;;;;;;;;;;;;;;;;;;5061804;28;19929;-71
2024/01/20 11:37:44;;;;;;;;;;;;;;;;;;5074904;28;19963;-71
2024/01/20 11:40:10;;;;;;;;;;;;;;;;;;5063187;28;19928;-72
2024/01/20 11:42:38;;;;;;;;;;;;;;;;;;5076455;28;19964;-73
2024/01/20 11:45:04;;;;;;;;;;;;;;;;;;5070699;28;19974;-72
2024/01/20 11:47:31;;;;;;;;;;;;;;;;;;5083697;28;20058;-71
2024/01/20 11:49:57;;;;;;;;;;;;;;;;;;5076097;28;19929;-72
2024/01/20 11:52:24;;;;;;;;;;;;;;;;;;5076401;28;19970;-74
2024/01/20 11:54:50;;;;;;;;;;;;;;;;;;5066368;28;20377;-72
2024/01/20 11:57:17;;;;;;;;;;;;;;;;;;5085157;28;20464;-72
2024/01/20 11:59:43;;;;;;;;;;;;;;;;;;5082593;28;19929;-73
2024/01/20 12:02:10;;;;;;;;;;;;;;;;;;5069191;28;20284;-73
2024/01/20 12:04:36;;;;;;;;;;;;;;;;;;5068571;28;19932;-73
2024/01/20 12:07:02;;;;;;;;;;;;;;;;;;5066375;28;19971;-73
2024/01/20 12:09:29;;;;;;;;;;;;;;;;;;5084160;28;19939;-75
2024/01/20 12:11:55;;;;;;;;;;;;;;;;;;5071630;28;19978;-72
2024/01/20 12:14:22;;;;;;;;;;;;;;;;;;5072109;28;20003;-72
2024/01/20 12:16:48;;;;;;;;;;;;;;;;;;5066278;28;20010;-72
2024/01/20 12:19:14;;;;;;;;;;;;;;;;;;5068200;28;19928;-75
2024/01/20 12:21:41;;;;;;;;;;;;;;;;;;5074936;28;19929;-74
2024/01/20 12:24:07;;;;;;;;;;;;;;;;;;5071948;28;19924;-73
2024/01/20 12:26:33;;;;;;;;;;;;;;;;;;5083325;28;19994;-72
2024/01/20 12:29:00;;;;;;;;;;;;;;;;;;5068157;28;19942;-72
2024/01/20 12:31:26;;;;;;;;;;;;;;;;;;5063755;28;19983;-72
2024/01/20 12:33:53;;;;;;;;;;;;;;;;;;5074711;28;20432;-72
2024/01/20 12:36:19;;;;;;;;;;;;;;;;;;5071786;28;20346;-72
2024/01/20 12:38:46;;;;;;;;;;;;;;;;;;5076014;28;19925;-72
2024/01/20 12:41:13;;;;;;;;;;;;;;;;;;5061317;28;20012;-72
2024/01/20 12:43:39;;;;;;;;;;;;;;;;;;5076654;28;19940;-72
2024/01/20 12:46:05;;;;;;;;;;;;;;;;;;5080152;28;20429;-72
2024/01/20 12:48:32;;;;;;;;;;;;;;;;;;5076925;28;19928;-72
2024/01/20 12:50:59;;;;;;;;;;;;;;;;;;5072574;28;19928;-73
2024/01/20 12:53:26;;;;;;;;;;;;;;;;;;5079868;28;20379;-72
2024/01/20 12:55:52;;;;;;;;;;;;;;;;;;5081877;28;20259;-72
2024/01/20 12:58:18;;;;;;;;;;;;;;;;;;5070599;28;19952;-73
2024/01/20 13:00:45;;;;;;;;;;;;;;;;;;5077389;28;20381;-72
2024/01/20 13:03:11;;;;;;;;;;;;;;;;;;5066865;28;19932;-72
2024/01/20 13:05:38;;;;;;;;;;;;;;;;;;5085120;28;20277;-75
2024/01/20 13:08:04;;;;;;;;;;;;;;;;;;5070701;28;19925;-74
2024/01/20 13:10:31;;;;;;;;;;;;;;;;;;5080469;28;19924;-73
2024/01/20 13:12:57;;;;;;;;;;;;;;;;;;5062038;28;19925;-73
2024/01/20 13:15:25;;;;;;;;;;;;;;;;;;5074311;28;19928;-73
2024/01/20 13:17:51;;;;;;;;;;;;;;;;;;5072865;28;20381;-74
2024/01/20 13:20:18;;;;;;;;;;;;;;;;;;5077704;28;20370;-74
2024/01/20 13:22:44;;;;;;;;;;;;;;;;;;5075192;28;19938;-73
2024/01/20 13:25:10;;;;;;;;;;;;;;;;;;5068792;28;19956;-74
2024/01/20 13:27:36;;;;;;;;;;;;;;;;;;5073226;28;19924;-74
2024/01/20 13:30:04;;;;;;;;;;;;;;;;;;5066819;28;20445;-75
2024/01/20 13:32:30;;;;;;;;;;;;;;;;;;5052454;28;19974;-72
2024/01/20 13:34:57;;;;;;;;;;;;;;;;;;5063606;28;19924;-73
2024/01/20 13:37:23;;;;;;;;;;;;;;;;;;5077496;28;20018;-73
2024/01/20 13:39:50;;;;;;;;;;;;;;;;;;5072941;28;20026;-73
2024/01/20 13:42:16;;;;;;;;;;;;;;;;;;5068398;28;20284;-73
2024/01/20 13:44:43;;;;;;;;;;;;;;;;;;5075126;28;19925;-74
2024/01/20 13:47:10;;;;;;;;;;;;;;;;;;5057138;28;19932;-73
2024/01/20 13:49:36;;;;;;;;;;;;;;;;;;5077279;28;20002;-74
2024/01/20 13:52:03;;;;;;;;;;;;;;;;;;5064125;28;19934;-75
2024/01/20 13:54:29;;;;;;;;;;;;;;;;;;5062047;28;19935;-76
2024/01/20 13:56:56;;;;;;;;;;;;;;;;;;5069438;28;20340;-74
2024/01/20 13:59:26;;;;;;;;;;;;;;;;;;5072178;28;19929;-74
2024/01/20 14:01:53;;;;;;;;;;;;;;;;;;5064271;28;19936;-73
2024/01/20 14:04:20;;;;;;;;;;;;;;;;;;5060664;28;19928;-74
2024/01/20 14:06:46;;;;;;;;;;;;;;;;;;5074224;28;19928;-73
2024/01/20 14:09:13;;;;;;;;;;;;;;;;;;5076647;28;19991;-74
2024/01/20 14:11:39;;;;;;;;;;;;;;;;;;5066484;28;19936;-74
2024/01/20 14:14:05;;;;;;;;;;;;;;;;;;5072875;28;19997;-74
2024/01/20 14:16:32;;;;;;;;;;;;;;;;;;5077974;28;19929;-74
2024/01/20 14:18:58;;;;;;;;;;;;;;;;;;5074705;28;19924;-76
2024/01/20 14:21:25;;;;;;;;;;;;;;;;;;5080396;28;20339;-74
2024/01/20 14:23:51;;;;;;;;;;;;;;;;;;5065367;28;19929;-72
2024/01/20 14:26:17;;;;;;;;;;;;;;;;;;5067491;28;20015;-74
2024/01/20 14:28:44;;;;;;;;;;;;;;;;;;5077447;28;19925;-75
2024/01/20 14:31:10;;;;;;;;;;;;;;;;;;5079432;28;19928;-74
2024/01/20 14:33:36;;;;;;;;;;;;;;;;;;5069689;28;20019;-74
2024/01/20 14:36:03;;;;;;;;;;;;;;;;;;5080700;28;19925;-73
2024/01/20 14:38:29;;;;;;;;;;;;;;;;;;5088754;28;20027;-75
2024/01/20 14:40:56;;;;;;;;;;;;;;;;;;5068830;28;20395;-72
2024/01/20 14:43:23;;;;;;;;;;;;;;;;;;5073572;28;19968;-73
2024/01/20 14:45:50;;;;;;;;;;;;;;;;;;5068266;28;20026;-73
2024/01/20 14:48:16;;;;;;;;;;;;;;;;;;5077819;28;20017;-73
2024/01/20 14:50:43;;;;;;;;;;;;;;;;;;5076833;28;19978;-72
2024/01/20 14:53:09;;;;;;;;;;;;;;;;;;5061907;28;19932;-72
2024/01/20 14:55:36;;;;;;;;;;;;;;;;;;5063853;28;20285;-73
2024/01/20 14:58:02;;;;;;;;;;;;;;;;;;5052641;28;19990;-73
2024/01/20 15:00:28;;;;;;;;;;;;;;;;;;5071847;28;19928;-72
2024/01/20 15:02:55;;;;;;;;;;;;;;;;;;5061192;28;19936;-74
2024/01/20 15:05:21;;;;;;;;;;;;;;;;;;5079668;28;19935;-72
2024/01/20 15:07:48;;;;;;;;;;;;;;;;;;5057068;28;19931;-72
2024/01/20 15:10:14;;;;;;;;;;;;;;;;;;5079979;28;19928;-75
2024/01/20 15:12:40;;;;;;;;;;;;;;;;;;5059806;28;19929;-74
2024/01/20 15:15:07;;;;;;;;;;;;;;;;;;5070569;28;19930;-73
2024/01/20 15:17:33;;;;;;;;;;;;;;;;;;5071940;28;20015;-72
2024/01/20 15:20:00;;;;;;;;;;;;;;;;;;5074556;28;19998;-72
2024/01/20 15:22:27;;;;;;;;;;;;;;;;;;5061689;28;20301;-74
2024/01/20 15:24:53;;;;;;;;;;;;;;;;;;5062939;28;19925;-72
2024/01/20 15:27:19;;;;;;;;;;;;;;;;;;5070339;28;19932;-75
2024/01/20 15:29:46;;;;;;;;;;;;;;;;;;5065038;28;19924;-74
2024/01/20 15:32:12;;;;;;;;;;;;;;;;;;5064622;28;19924;-72
2024/01/20 15:34:38;;;;;;;;;;;;;;;;;;5065262;28;19924;-72
2024/01/20 15:37:05;;;;;;;;;;;;;;;;;;5069218;28;20313;-73
2024/01/20 15:39:31;;;;;;;;;;;;;;;;;;5070022;28;19955;-72
2024/01/20 15:41:58;;;;;;;;;;;;;;;;;;5066643;28;19928;-73
2024/01/20 15:44:24;;;;;;;;;;;;;;;;;;5068858;28;20522;-73
2024/01/20 15:46:50;;;;;;;;;;;;;;;;;;5068519;28;19931;-73
2024/01/20 15:49:17;;;;;;;;;;;;;;;;;;5061923;28;19940;-74
2024/01/20 15:51:49;;;;;;;;;;;;;;;;;;5069816;28;20017;-73
2024/01/20 15:54:16;;;;;;;;;;;;;;;;;;5073436;28;20012;-73
2024/01/20 15:56:42;;;;;;;;;;;;;;;;;;5062696;28;19967;-75
2024/01/20 15:59:08;;;;;;;;;;;;;;;;;;5073801;28;20385;-72
2024/01/20 16:01:35;;;;;;;;;;;;;;;;;;5078737;28;19971;-72
2024/01/20 16:04:02;;;;;;;;;;;;;;;;;;5065144;28;20416;-72
2024/01/20 16:06:29;;;;;;;;;;;;;;;;;;5071506;28;20020;-72
2024/01/20 16:08:56;;;;;;;;;;;;;;;;;;5069851;28;19940;-74
2024/01/20 16:11:22;;;;;;;;;;;;;;;;;;5085190;28;19924;-73
2024/01/20 16:13:49;;;;;;;;;;;;;;;;;;5059374;28;20391;-72
2024/01/20 16:16:15;;;;;;;;;;;;;;;;;;5075413;28;20389;-72
2024/01/20 16:18:42;;;;;;;;;;;;;;;;;;5066572;28;19935;-74
2024/01/20 16:21:08;;;;;;;;;;;;;;;;;;5065829;28;19936;-73
2024/01/20 16:23:34;;;;;;;;;;;;;;;;;;5061204;28;19924;-73
2024/01/20 16:26:01;;;;;;;;;;;;;;;;;;5073885;28;20835;-72
2024/01/20 16:28:27;;;;;;;;;;;;;;;;;;5074119;28;20404;-71
2024/01/20 16:30:56;;;;;;;;;;;;;;;;;;5075431;28;20023;-72
2024/01/20 16:33:23;;;;;;;;;;;;;;;;;;5078940;28;19931;-72
2024/01/20 16:35:49;;;;;;;;;;;;;;;;;;5077046;28;20399;-72
2024/01/20 16:38:16;;;;;;;;;;;;;;;;;;5083890;28;19924;-73
2024/01/20 16:40:42;;;;;;;;;;;;;;;;;;5071453;28;19925;-72